This is an optional block. Switch it on/off in your settings-file: $SITE['bannerTop'] = false; or $SITE['bannerBottom'] = false;

You can display ads, any other important text or photo’s using text / html or PHP code.

You can place one or more at the top and or bottom and it can all be different for content / size .



Lozoyuela more information Lozoyuela


Meteosat more information blitzortung!


Radar lluvias more information rain snow radar



Informes METAR proximidad


Warning: A non-numeric value encountered in /home/meteotorkc/sierranorte/weather28/metar/wsMetarTxt.php on line 609

Warning: A non-numeric value encountered in /home/meteotorkc/sierranorte/weather28/metar/wsMetarTxt.php on line 609

Warning: A non-numeric value encountered in /home/meteotorkc/sierranorte/weather28/metar/wsMetarTxt.php on line 609

Warning: A non-numeric value encountered in /home/meteotorkc/sierranorte/weather28/metar/wsMetarTxt.php on line 609

Warning: A non-numeric value encountered in /home/meteotorkc/sierranorte/weather28/metar/wsMetarTxt.php on line 609
   
LEXJ - Santander/Parayas, Spain
Distancia hasta la estación: ESE 6 km
Actualización: 17-01-2019 09:30
Parcialmente nublado  
Parcialmente nublado  
   Viento: SW 11.1 km/h
Viento: SW 11.1 km/h
Temperatura: 8°C
Térmica: 6°C
Punto de rocío: 7°C
Humedad: 93%
Baromètro: 1021 hPa
Nublado: Mostly Cloudy
Visibilidad: More than 10 km
detalles de la nube: Nubes dispersas 2800 ft,
Parcialmente nublado 4500 ft
LEXJ 170830Z 23006KT 200V260 9999 FEW028 BKN045 08/07 Q1021
LEBB - Bilbao/Sondica, Spain
Distancia hasta la estación: ESE 80 km
Actualización: 17-01-2019 09:30
Parcialmente Nublado  
Parcialmente Nublado  
   Viento: varía 1.9 km/h
Viento: varía 1.9 km/h
Temperatura: 7°C
Punto de rocío: 6°C
Humedad: 93%
Baromètro: 1020 hPa
Nublado: Partly Cloudy
Visibilidad: More than 10 km
detalles de la nube: Nubes dispersas 2500 ft,
Parcialmente Nublado 5500 ft
LEBB 170830Z VRB01KT 9999 FEW025 SCT055 07/06 Q1020 TEMPO SHRA SCT030TCU
LEBL - Barcelona Airpor, Spain
Distancia hasta la estación: ESE 554 km
Actualización: 17-01-2019 09:30
Nubes dispersas  
Nubes dispersas  
   Viento: NNW 24.1 km/h
Viento: NNW 24.1 km/h
Temperatura: 8°C
Térmica: 4°C
Punto de rocío: 4°C
Humedad: 76%
Baromètro: 1016 hPa
Nublado: Few Clouds
Visibilidad: More than 10 km
detalles de la nube: Nubes dispersas 4000 ft
LEBL 170830Z 34013KT 310V020 9999 FEW040 08/04 Q1016 NOSIG
LEMD - Madrid/Barajas, Spain
Distancia hasta la estación: S 325 km
Actualización: 17-01-2019 09:30
Niebla, Parcialmente nublado  
Niebla, Parcialmente nublado  
   Viento: ESE 5.6 km/h
Viento: ESE 5.6 km/h
Temperatura: 3°C
Térmica: 2°C
Punto de rocío: 2°C
Humedad: 93%
Baromètro: 1018 hPa
Nublado: Mostly Cloudy
Visibilidad: 5 km
detalles de la nube: Parcialmente Nublado 800 ft,
Parcialmente nublado 1100 ft
LEMD 170830Z 11003KT 080V150 5000 BR SCT008 BKN011 03/02 Q1018 NOSIG
LPPT - Lisbon/Portela, Portugal
Distancia hasta la estación: SW 663 km
Actualización: 17-01-2019 09:30
Nubes dispersas  
Nubes dispersas  
   Viento: N 14.8 km/h
Viento: N 14.8 km/h
Temperatura: 9°C
Térmica: 7°C
Punto de rocío: 8°C
Humedad: 94%
Baromètro: 1021 hPa
Nublado: Few Clouds
Visibilidad: More than 10 km
detalles de la nube: Nubes dispersas 1200 ft
LPPT 170830Z 01008KT 9999 FEW012 09/08 Q1021
LECO - La Coruna/Alvedr, Spain
Distancia hasta la estación: W 349 km
Actualización: 17-01-2019 09:30
lluvia, Patches of, Niebla, Parcialmente Nublado  
lluvia, Patches of, Niebla, Parcialmente Nublado  
   Viento: S 7.4 km/h
Viento: S 7.4 km/h
Temperatura: 5°C
Térmica: 3°C
Punto de rocío: 5°C
Humedad: 100%
Baromètro: 1023 hPa
Nublado: Partly Cloudy
Visibilidad: More than 10 km
detalles de la nube: Parcialmente Nublado 3000 ft
LECO 170830Z 17004KT 070V200 9999 1100SE -RA BCFG SCT030TCU 05/05 Q1023 TEMPO SHRA
LEST - Santiago/Labacol, Spain
Distancia hasta la estación: W 358 km
Actualización: 17-01-2019 09:30
Parcialmente Nublado  
Parcialmente Nublado  
   Viento: varía 3.7 km/h
Viento: varía 3.7 km/h
Temperatura: 4°C
Punto de rocío: 4°C
Humedad: 100%
Baromètro: 1022 hPa
Nublado: Partly Cloudy
Visibilidad: More than 10 km
detalles de la nube: Nubes dispersas 2000 ft,
Parcialmente Nublado 4000 ft
LEST 170830Z VRB02KT 9999 FEW020 SCT040 04/04 Q1022 NOSIG
EBBR - Brussels International Airport, Belgium
Distancia hasta la estación: W 14 km
Actualización: 17-01-2019 09:20
Light Showers, Lluvia, Parcialmente nublado  
Light Showers, Lluvia, Parcialmente nublado  
   Viento: SW 14.8 km/h
Viento: SW 14.8 km/h
Temperatura: 4°C
Térmica: 1°C
Punto de rocío: 3°C
Humedad: 93%
Baromètro: 1002 hPa
Nublado: Mostly Cloudy
Visibilidad: More than 10 km
detalles de la nube: Nubes dispersas 1000 ft,
Parcialmente Nublado 1100 ft,
Parcialmente nublado 2100 ft
EBBR 170820Z 23008KT 9999 -SHRA FEW010 SCT011 BKN021 04/03 Q1002 TEMPO 25015G25KT 4000 SHRAGS BKN012CB
EBBE - Beauvechain (Bevekom), Belgium
Distancia hasta la estación: SSE 17 km
Actualización: 17-01-2019 09:25
Light Showers, Lluvia, Parcialmente nublado  
Light Showers, Lluvia, Parcialmente nublado  
   Viento: West 22.2 km/h
Viento: West 22.2 km/h
Temperatura: 3°C
Térmica: -2°C
Punto de rocío: 2°C
Humedad: 93%
Baromètro: 1002 hPa
Nublado: Mostly Cloudy
Visibilidad: 4 km
detalles de la nube: Nubes dispersas 900 ft,
Parcialmente nublado 1100 ft,
Parcialmente nublado 1600 ft
EBBE 170825Z 26012KT 4000 -SHRA FEW009 BKN011 BKN016 03/02 Q1002 GRN WHT TEMPO GRN
EBDT - Schaffen, Belgium
Distancia hasta la estación: ENE 29 km
Actualización: 17-01-2019 09:25
Lluvia, Parcialmente nublado  
Lluvia, Parcialmente nublado  
   Viento: SW 14.8 km/h
Viento: SW 14.8 km/h
Temperatura: 4°C
Térmica: 1°C
Punto de rocío: 3°C
Humedad: 93%
Baromètro: 1002 hPa
Nublado: Mostly Cloudy
Visibilidad: 4 km
detalles de la nube: Nubes dispersas 900 ft,
Parcialmente nublado 1200 ft,
Parcialmente nublado 2000 ft
EBDT 170825Z 23008KT 4000 RA FEW009 BKN012 BKN020 04/03 Q1002 GRN GRN
EBAW - Antwerp/Deurne, Belgium
Distancia hasta la estación: NNW 38 km
Actualización: 17-01-2019 09:20
lluvia, Llovizna, Niebla, Parcialmente nublado  
lluvia, Llovizna, Niebla, Parcialmente nublado  
   Viento: WSW 14.8 km/h
Viento: WSW 14.8 km/h
Temperatura: 5°C
Térmica: 2°C
Punto de rocío: 4°C
Humedad: 93%
Baromètro: 1002 hPa
Nublado: Mostly Cloudy
Visibilidad: 5 km
detalles de la nube: Parcialmente Nublado 800 ft,
Parcialmente nublado 1000 ft
EBAW 170820Z 25008KT 210V270 5000 -RADZ BR SCT008 BKN010 05/04 Q1002 TEMPO 2500M SHRAGS BKN008CB
EBCI - Charleroi/Gosselies, Belgium
Distancia hasta la estación: SSW 51 km
Actualización: 17-01-2019 09:20
lluvia, Parcialmente nublado  
lluvia, Parcialmente nublado  
   Viento: WSW 29.6 km/h
Viento: WSW 29.6 km/h
Temperatura: 4°C
Térmica: -1°C
Punto de rocío: 3°C
Humedad: 93%
Baromètro: 1003 hPa
Nublado: Mostly Cloudy
Visibilidad: 8 km
detalles de la nube: Parcialmente nublado 800 ft,
Parcialmente nublado 1000 ft
EBCI 170820Z 24016KT 8000 -RA BKN008 BKN010 04/03 Q1003 NOSIG
EBLG - Bierset/Liege, Belgium
Distancia hasta la estación: ESE 60 km
Actualización: 17-01-2019 09:20
Light Showers, Lluvia, Parcialmente nublado  
Light Showers, Lluvia, Parcialmente nublado  
   Viento: SSW 22.2 km/h
Viento: SSW 22.2 km/h
Temperatura: 4°C
Térmica: -1°C
Punto de rocío: 3°C
Humedad: 93%
Baromètro: 1002 hPa
Nublado: Mostly Cloudy
Visibilidad: More than 10 km
detalles de la nube: Nubes dispersas 900 ft,
Parcialmente Nublado 1200 ft,
Parcialmente nublado 2200 ft
EBLG 170820Z 20012KT 9999 -SHRA FEW009 SCT012 BKN022 04/03 Q1002 TEMPO 3500 SHRA
  

Guión original por  Saratoga-weather.org Adaptado para la plantilla por  Weerstation Leuven

Usted encontrará nuestra información del tiempo también en:

UK Metoffice

Weather Underground

Equipo utilizado:

Weather-station
Davis VP2

Weather-program
Weather Display

Weather-server
My Computer

Proveedor
My provider

Davis VP2

Weather Display

My Computer

My provider